Time;durP1;ratioP1;P1;durP2;ratioP2;P2;SDS_P1;SDS_P2;PMS_P1;PMS_P2;Temp;Humidity;BMP_temperature;BMP_pressure;BME280_temperature;BME280_humidity;BME280_pressure;Samples;Min_cycle;Max_cycle;Signal;HPM_P1;HPM_P2
2024/01/25 00:00:13;;;;;;;18.42;4.35;;;;;;;;;;6148441;28;20051;-84
2024/01/25 00:03:14;;;;;;;21.38;4.15;;;;;;;;;;6143454;28;20040;-83
2024/01/25 00:06:16;;;;;;;26.25;4.15;;;;;;;;;;6163750;28;20419;-83
2024/01/25 00:09:18;;;;;;;20.75;4.90;;;;;;;;;;6130747;28;20099;-83
2024/01/25 00:12:20;;;;;;;20.73;4.38;;;;;;;;;;6146359;28;20097;-84
2024/01/25 00:15:22;;;;;;;26.15;5.10;;;;;;;;;;6156797;28;20043;-84
2024/01/25 00:18:24;;;;;;;18.60;4.90;;;;;;;;;;6143536;28;20050;-83
2024/01/25 00:21:25;;;;;;;24.00;4.90;;;;;;;;;;6140508;28;20081;-84
2024/01/25 00:24:27;;;;;;;25.17;5.45;;;;;;;;;;6147173;28;20050;-84
2024/01/25 00:27:29;;;;;;;19.65;5.68;;;;;;;;;;6160309;28;20054;-84
2024/01/25 00:30:31;;;;;;;20.23;5.85;;;;;;;;;;6149937;28;20047;-84
2024/01/25 00:33:33;;;;;;;20.77;5.15;;;;;;;;;;6145738;28;20141;-84
2024/01/25 00:36:35;;;;;;;25.63;6.40;;;;;;;;;;6147650;28;20047;-83
2024/01/25 00:39:37;;;;;;;23.35;5.85;;;;;;;;;;6157985;28;20083;-83
2024/01/25 00:42:43;;;;;;;24.73;5.50;;;;;;;;;;6138545;28;20050;-83
2024/01/25 00:45:45;;;;;;;22.30;5.97;;;;;;;;;;6147565;28;20047;-84
2024/01/25 00:48:47;;;;;;;28.25;5.53;;;;;;;;;;6127161;28;20109;-83
2024/01/25 00:51:54;;;;;;;14.73;4.75;;;;;;;;;;6143310;28;20050;-84
2024/01/25 00:54:56;;;;;;;17.42;5.07;;;;;;;;;;6157559;28;20065;-83
2024/01/25 00:57:59;;;;;;;26.65;6.43;;;;;;;;;;6145239;28;20094;-83
2024/01/25 01:01:01;;;;;;;25.38;4.97;;;;;;;;;;6158654;28;20059;-82
2024/01/25 01:04:04;;;;;;;24.07;5.80;;;;;;;;;;6136854;28;20478;-82
2024/01/25 01:07:06;;;;;;;26.80;5.83;;;;;;;;;;6137890;28;20043;-83
2024/01/25 01:10:09;;;;;;;19.17;5.40;;;;;;;;;;6142637;28;20043;-84
2024/01/25 01:13:11;;;;;;;23.17;6.10;;;;;;;;;;6136758;28;20055;-83
2024/01/25 01:16:12;;;;;;;22.00;5.60;;;;;;;;;;6166727;28;20157;-83
2024/01/25 01:19:14;;;;;;;20.30;5.30;;;;;;;;;;6138154;28;20067;-82
2024/01/25 01:22:16;;;;;;;20.50;4.85;;;;;;;;;;6141872;28;20062;-83
2024/01/25 01:25:18;;;;;;;22.45;5.35;;;;;;;;;;6119942;28;20400;-83
2024/01/25 01:28:20;;;;;;;21.13;4.85;;;;;;;;;;6145017;28;20107;-83
2024/01/25 01:31:22;;;;;;;24.70;5.07;;;;;;;;;;6143923;28;20048;-82
2024/01/25 01:34:24;;;;;;;22.88;4.72;;;;;;;;;;6138167;28;20126;-83
2024/01/25 01:37:26;;;;;;;19.67;5.85;;;;;;;;;;6136644;28;20130;-82
2024/01/25 01:40:28;;;;;;;18.83;4.85;;;;;;;;;;6143769;28;20058;-82
2024/01/25 01:43:30;;;;;;;14.95;4.68;;;;;;;;;;6121071;28;20066;-82
2024/01/25 01:46:37;;;;;;;18.65;4.28;;;;;;;;;;6155090;28;20410;-82
2024/01/25 01:49:39;;;;;;;18.35;5.15;;;;;;;;;;6140763;28;20090;-82
2024/01/25 01:52:42;;;;;;;17.52;5.07;;;;;;;;;;6128107;28;20070;-82
2024/01/25 01:55:44;;;;;;;25.55;4.88;;;;;;;;;;6137454;28;20047;-82
2024/01/25 01:58:47;;;;;;;22.25;5.15;;;;;;;;;;6137647;28;20051;-82
2024/01/25 02:01:49;;;;;;;21.48;4.85;;;;;;;;;;6143155;28;20079;-83
2024/01/25 02:04:51;;;;;;;26.40;5.18;;;;;;;;;;6152525;28;20046;-83
2024/01/25 02:07:54;;;;;;;21.70;4.63;;;;;;;;;;6159203;28;20042;-83
2024/01/25 02:10:55;;;;;;;25.30;5.22;;;;;;;;;;6162638;28;20047;-84
2024/01/25 02:13:57;;;;;;;21.80;5.30;;;;;;;;;;6162567;28;20063;-84
2024/01/25 02:16:59;;;;;;;24.42;4.95;;;;;;;;;;6156675;28;20051;-84
2024/01/25 02:20:03;;;;;;;25.73;5.20;;;;;;;;;;6146474;28;20074;-84
2024/01/25 02:23:05;;;;;;;25.20;5.57;;;;;;;;;;6153230;28;20312;-84
2024/01/25 02:26:07;;;;;;;23.55;5.07;;;;;;;;;;6152024;28;20054;-84
2024/01/25 02:29:09;;;;;;;18.83;5.60;;;;;;;;;;6152406;28;20050;-83
2024/01/25 02:32:11;;;;;;;18.55;4.65;;;;;;;;;;6142308;28;20047;-83
2024/01/25 02:35:13;;;;;;;28.48;5.13;;;;;;;;;;6147549;28;20227;-83
2024/01/25 02:38:15;;;;;;;23.00;4.68;;;;;;;;;;6143665;28;20055;-84
2024/01/25 02:41:16;;;;;;;25.90;5.88;;;;;;;;;;6145250;28;20050;-84
2024/01/25 02:44:20;;;;;;;20.83;4.57;;;;;;;;;;6147416;28;20054;-84
2024/01/25 02:47:22;;;;;;;17.00;4.57;;;;;;;;;;6128686;28;20055;-84
2024/01/25 02:50:24;;;;;;;27.10;5.03;;;;;;;;;;6164556;28;20414;-83
2024/01/25 02:53:26;;;;;;;19.30;4.53;;;;;;;;;;6164796;28;20055;-84
2024/01/25 02:56:33;;;;;;;27.90;5.22;;;;;;;;;;6166518;28;20083;-83
2024/01/25 02:59:35;;;;;;;22.95;6.22;;;;;;;;;;6159374;28;21789;-84
2024/01/25 03:02:36;;;;;;;19.48;5.20;;;;;;;;;;6140191;28;20077;-83
2024/01/25 03:05:38;;;;;;;21.63;4.70;;;;;;;;;;6117839;28;20047;-83
2024/01/25 03:08:40;;;;;;;18.42;5.13;;;;;;;;;;6135643;28;20171;-83
2024/01/25 03:11:42;;;;;;;22.23;4.97;;;;;;;;;;6134020;28;20090;-84
2024/01/25 03:14:43;;;;;;;20.13;5.03;;;;;;;;;;6140838;28;20043;-84
2024/01/25 03:17:45;;;;;;;29.70;5.85;;;;;;;;;;6137652;28;20530;-84
2024/01/25 03:20:50;;;;;;;21.73;4.90;;;;;;;;;;6139848;28;20054;-84
2024/01/25 03:23:52;;;;;;;31.48;5.68;;;;;;;;;;6133520;28;20333;-83
2024/01/25 03:26:56;;;;;;;25.90;5.40;;;;;;;;;;6142852;28;20066;-83
2024/01/25 03:29:58;;;;;;;16.55;4.97;;;;;;;;;;6156545;28;20054;-83
2024/01/25 03:33:00;;;;;;;19.07;4.97;;;;;;;;;;6149353;28;20418;-82
2024/01/25 03:36:03;;;;;;;19.92;4.72;;;;;;;;;;6142594;28;20443;-83
2024/01/25 03:39:05;;;;;;;19.83;4.93;;;;;;;;;;6143064;28;20047;-83
2024/01/25 03:42:08;;;;;;;;;;;;;;;;;;6153687;28;20117;-83
2024/01/25 03:45:10;;;;;;;29.13;6.05;;;;;;;;;;6141107;28;20409;-83
2024/01/25 03:48:12;;;;;;;24.67;5.40;;;;;;;;;;6154233;28;20062;-83
2024/01/25 03:51:14;;;;;;;22.75;5.03;;;;;;;;;;6154363;28;20305;-83
2024/01/25 03:54:16;;;;;;;19.65;4.82;;;;;;;;;;6134574;28;20470;-83
2024/01/25 03:57:17;;;;;;;26.42;4.82;;;;;;;;;;6140014;28;20055;-83
2024/01/25 04:00:19;;;;;;;21.95;4.32;;;;;;;;;;6137142;28;20083;-83
2024/01/25 04:03:21;;;;;;;25.48;5.22;;;;;;;;;;6131509;28;20047;-84
2024/01/25 04:06:23;;;;;;;16.67;4.60;;;;;;;;;;6158518;28;20063;-83
2024/01/25 04:09:25;;;;;;;12.48;3.88;;;;;;;;;;6136521;28;20430;-83
2024/01/25 04:12:27;;;;;;;25.63;5.53;;;;;;;;;;6137802;28;20179;-83
2024/01/25 04:15:28;;;;;;;27.17;4.53;;;;;;;;;;6122525;28;20144;-83
2024/01/25 04:18:30;;;;;;;21.63;5.28;;;;;;;;;;6140111;28;20043;-83
2024/01/25 04:21:32;;;;;;;16.15;3.95;;;;;;;;;;6157242;28;20043;-83
2024/01/25 04:24:34;;;;;;;23.70;4.60;;;;;;;;;;6136564;28;20050;-83
2024/01/25 04:27:37;;;;;;;24.23;4.32;;;;;;;;;;6134075;28;20340;-83
2024/01/25 04:30:39;;;;;;;;;;;;;;;;;;6138620;28;20201;-83
2024/01/25 04:33:41;;;;;;;16.33;4.57;;;;;;;;;;6128914;28;19944;-83
2024/01/25 04:36:49;;;;;;;19.08;4.18;;;;;;;;;;6135685;28;20069;-83
2024/01/25 04:39:51;;;;;;;16.38;3.45;;;;;;;;;;6129603;28;20422;-83
2024/01/25 04:42:53;;;;;;;13.90;4.67;;;;;;;;;;6111236;28;20499;-83
2024/01/25 04:45:55;;;;;;;27.27;4.25;;;;;;;;;;6128205;28;20047;-82
2024/01/25 04:48:57;;;;;;;16.25;3.70;;;;;;;;;;6172296;28;20055;-83
2024/01/25 04:51:59;;;;;;;12.20;3.33;;;;;;;;;;6151298;28;20058;-83
2024/01/25 04:55:01;;;;;;;20.10;3.85;;;;;;;;;;6165857;28;20047;-83
2024/01/25 04:58:03;;;;;;;19.45;4.15;;;;;;;;;;6147190;28;20061;-84
2024/01/25 05:01:06;;;;;;;11.13;3.40;;;;;;;;;;6145537;28;20051;-83
2024/01/25 05:04:09;;;;;;;19.05;4.57;;;;;;;;;;6143098;28;20048;-83
2024/01/25 05:07:11;;;;;;;19.55;4.25;;;;;;;;;;6124416;28;20357;-85
2024/01/25 05:10:13;;;;;;;18.95;4.45;;;;;;;;;;6136694;28;20121;-83
2024/01/25 05:13:15;;;;;;;17.60;3.67;;;;;;;;;;6135155;28;20051;-84
2024/01/25 05:16:17;;;;;;;13.23;3.30;;;;;;;;;;6133151;28;20153;-83
2024/01/25 05:19:19;;;;;;;20.77;3.92;;;;;;;;;;6141634;28;20047;-83
2024/01/25 05:22:21;;;;;;;23.27;4.60;;;;;;;;;;6141482;28;20043;-83
2024/01/25 05:25:24;;;;;;;13.27;3.50;;;;;;;;;;6136601;28;20051;-83
2024/01/25 05:28:26;;;;;;;22.17;3.63;;;;;;;;;;6152352;28;20039;-83
2024/01/25 05:31:28;;;;;;;16.95;3.85;;;;;;;;;;6128955;28;20051;-83
2024/01/25 05:34:30;;;;;;;19.50;4.18;;;;;;;;;;6140218;28;20054;-83
2024/01/25 05:37:32;;;;;;;18.92;3.65;;;;;;;;;;6141961;28;20525;-83
2024/01/25 05:40:34;;;;;;;19.55;3.67;;;;;;;;;;6139006;28;20047;-83
2024/01/25 05:43:36;;;;;;;20.25;3.97;;;;;;;;;;6140215;28;20066;-84
2024/01/25 05:46:38;;;;;;;19.05;3.97;;;;;;;;;;6148599;28;20067;-83
2024/01/25 05:49:40;;;;;;;13.82;3.20;;;;;;;;;;6141847;28;20434;-83
2024/01/25 05:52:42;;;;;;;12.60;3.65;;;;;;;;;;6149464;28;20522;-84
2024/01/25 05:55:44;;;;;;;15.10;3.70;;;;;;;;;;6152706;28;20555;-83
2024/01/25 05:58:46;;;;;;;17.45;3.95;;;;;;;;;;6150359;28;20047;-84
2024/01/25 06:01:47;;;;;;;25.00;4.38;;;;;;;;;;6152801;28;20051;-83
2024/01/25 06:04:49;;;;;;;15.48;3.75;;;;;;;;;;6163895;28;20087;-83
2024/01/25 06:07:51;;;;;;;20.75;3.80;;;;;;;;;;6145168;28;20054;-83
2024/01/25 06:10:54;;;;;;;14.52;3.10;;;;;;;;;;6136902;28;20046;-84
2024/01/25 06:13:55;;;;;;;19.15;4.28;;;;;;;;;;6150842;28;20055;-83
2024/01/25 06:16:57;;;;;;;20.90;3.72;;;;;;;;;;6144043;28;20194;-83
2024/01/25 06:19:59;;;;;;;18.95;4.18;;;;;;;;;;6142754;28;20047;-84
2024/01/25 06:23:01;;;;;;;21.58;4.35;;;;;;;;;;6156220;28;20047;-83
2024/01/25 06:26:04;;;;;;;13.23;3.33;;;;;;;;;;6141590;28;20055;-83
2024/01/25 06:29:06;;;;;;;19.20;4.18;;;;;;;;;;6144461;28;20058;-83
2024/01/25 06:32:07;;;;;;;13.35;3.65;;;;;;;;;;6144051;28;20047;-83
2024/01/25 06:35:16;;;;;;;17.40;3.17;;;;;;;;;;6142180;28;20055;-83
2024/01/25 06:38:19;;;;;;;20.50;4.43;;;;;;;;;;6121652;28;20047;-83
2024/01/25 06:41:20;;;;;;;14.70;4.18;;;;;;;;;;6142467;28;20577;-83
2024/01/25 06:44:22;;;;;;;15.57;3.38;;;;;;;;;;6141769;28;20044;-83
2024/01/25 06:47:24;;;;;;;15.20;3.60;;;;;;;;;;6144169;28;20054;-83
2024/01/25 06:50:26;;;;;;;11.50;3.25;;;;;;;;;;6140975;28;20555;-87
2024/01/25 06:53:29;;;;;;;15.35;3.40;;;;;;;;;;6116790;28;20051;-85
2024/01/25 06:56:34;;;;;;;19.42;3.53;;;;;;;;;;6123805;28;20042;-84
2024/01/25 06:59:36;;;;;;;16.30;3.40;;;;;;;;;;6149050;28;20066;-85
2024/01/25 07:02:38;;;;;;;14.93;3.78;;;;;;;;;;6149710;28;20051;-84
2024/01/25 07:05:41;;;;;;;14.32;3.55;;;;;;;;;;6128754;28;20054;-84
2024/01/25 07:08:43;;;;;;;21.10;3.85;;;;;;;;;;6136588;28;20051;-84
2024/01/25 07:11:44;;;;;;;21.05;3.75;;;;;;;;;;6136262;28;20054;-85
2024/01/25 07:14:46;;;;;;;21.85;3.70;;;;;;;;;;6150367;28;20187;-84
2024/01/25 07:17:48;;;;;;;18.27;4.15;;;;;;;;;;6139368;28;20522;-85
2024/01/25 07:20:51;;;;;;;11.60;3.33;;;;;;;;;;6139473;28;20655;-85
2024/01/25 07:23:53;;;;;;;15.33;3.33;;;;;;;;;;6139063;28;20181;-85
2024/01/25 07:26:55;;;;;;;17.63;3.20;;;;;;;;;;6134944;28;20269;-85
2024/01/25 07:29:57;;;;;;;14.45;2.97;;;;;;;;;;6154205;28;20051;-85
2024/01/25 07:32:59;;;;;;;15.35;3.17;;;;;;;;;;6143959;28;20047;-85
2024/01/25 07:36:01;;;;;;;13.10;2.63;;;;;;;;;;6178552;28;20043;-85
2024/01/25 07:39:03;;;;;;;10.27;2.63;;;;;;;;;;6160049;28;20075;-86
2024/01/25 07:42:05;;;;;;;17.05;3.28;;;;;;;;;;6129650;28;20062;-87
2024/01/25 07:45:07;;;;;;;10.52;2.85;;;;;;;;;;6139160;28;20521;-87
2024/01/25 07:48:09;;;;;;;15.80;2.80;;;;;;;;;;6135109;28;20050;-84
2024/01/25 07:51:16;;;;;;;20.55;3.45;;;;;;;;;;6132199;28;20414;-86
2024/01/25 07:54:18;;;;;;;17.85;3.47;;;;;;;;;;6134921;28;20510;-86
2024/01/25 07:57:20;;;;;;;16.23;3.75;;;;;;;;;;6111974;28;20321;-86
2024/01/25 08:00:22;;;;;;;14.88;3.45;;;;;;;;;;6136364;28;20047;-85
2024/01/25 08:03:26;;;;;;;19.50;3.17;;;;;;;;;;6145827;28;20039;-85
2024/01/25 08:06:28;;;;;;;18.27;3.60;;;;;;;;;;6136287;28;20070;-85
2024/01/25 08:09:30;;;;;;;18.17;3.50;;;;;;;;;;6112030;28;20047;-86
2024/01/25 08:12:32;;;;;;;14.18;3.42;;;;;;;;;;6132950;28;20502;-86
2024/01/25 08:15:34;;;;;;;18.48;3.38;;;;;;;;;;6122493;28;20050;-86
2024/01/25 08:18:36;;;;;;;19.42;3.88;;;;;;;;;;6134041;28;20078;-87
2024/01/25 08:21:38;;;;;;;14.02;3.30;;;;;;;;;;6132719;28;20070;-88
2024/01/25 08:24:42;;;;;;;17.70;3.95;;;;;;;;;;6116640;28;20442;-88
2024/01/25 08:27:47;;;;;;;16.92;4.13;;;;;;;;;;6122093;28;20456;-88
2024/01/25 08:30:49;;;;;;;20.25;4.25;;;;;;;;;;6150684;28;20611;-86
2024/01/25 08:33:50;;;;;;;20.08;4.07;;;;;;;;;;6134583;28;20047;-84
2024/01/25 08:36:53;;;;;;;21.02;5.07;;;;;;;;;;6138782;28;20521;-85
2024/01/25 08:39:54;;;;;;;14.23;4.05;;;;;;;;;;6136232;28;20491;-86
2024/01/25 08:42:56;;;;;;;23.80;3.90;;;;;;;;;;6149674;28;20086;-85
2024/01/25 08:45:58;;;;;;;25.58;4.40;;;;;;;;;;6132653;28;20477;-85
2024/01/25 08:49:00;;;;;;;16.15;4.35;;;;;;;;;;6121591;28;20411;-84
2024/01/25 08:52:02;;;;;;;23.25;4.25;;;;;;;;;;6138652;28;20057;-86
2024/01/25 08:55:04;;;;;;;18.80;3.65;;;;;;;;;;6134746;28;20055;-86
2024/01/25 08:58:06;;;;;;;24.25;4.85;;;;;;;;;;6138568;28;20098;-85
2024/01/25 09:01:08;;;;;;;15.07;4.63;;;;;;;;;;6153538;28;20050;-86
2024/01/25 09:04:10;;;;;;;21.40;4.83;;;;;;;;;;6129563;28;20502;-86
2024/01/25 09:07:13;;;;;;;17.40;4.15;;;;;;;;;;6136616;28;20425;-85
2024/01/25 09:10:15;;;;;;;18.33;5.25;;;;;;;;;;6131181;28;20054;-85
2024/01/25 09:13:16;;;;;;;14.52;3.78;;;;;;;;;;6132933;28;20073;-85
2024/01/25 09:16:18;;;;;;;18.55;4.00;;;;;;;;;;6139065;28;20054;-86
2024/01/25 09:19:20;;;;;;;18.02;4.38;;;;;;;;;;6148374;28;20437;-85
2024/01/25 09:22:22;;;;;;;16.05;4.80;;;;;;;;;;6121443;28;20462;-85
2024/01/25 09:25:27;;;;;;;30.50;5.53;;;;;;;;;;6119382;28;20047;-85
2024/01/25 09:28:29;;;;;;;18.15;4.43;;;;;;;;;;6152666;28;20177;-85
2024/01/25 09:31:31;;;;;;;16.63;4.63;;;;;;;;;;6137421;28;20105;-85
2024/01/25 09:34:37;;;;;;;16.57;4.40;;;;;;;;;;6101551;28;20177;-85
2024/01/25 09:37:42;;;;;;;19.05;4.57;;;;;;;;;;6134088;28;20039;-84
2024/01/25 09:40:44;;;;;;;23.00;4.82;;;;;;;;;;6114704;28;20039;-85
2024/01/25 09:43:46;;;;;;;17.10;4.93;;;;;;;;;;6132520;28;20573;-85
2024/01/25 09:46:48;;;;;;;23.33;5.63;;;;;;;;;;6137435;28;20062;-85
2024/01/25 09:49:51;;;;;;;23.60;5.32;;;;;;;;;;6126546;28;20051;-85
2024/01/25 09:52:57;;;;;;;13.45;4.45;;;;;;;;;;6136165;28;20105;-85
2024/01/25 09:56:10;;;;;;;17.42;5.18;;;;;;;;;;6150358;28;20133;-85
2024/01/25 09:59:12;;;;;;;17.60;4.70;;;;;;;;;;6130480;28;20082;-85
2024/01/25 10:02:16;;;;;;;18.48;4.45;;;;;;;;;;6151754;28;20054;-85
2024/01/25 10:05:18;;;;;;;31.27;6.28;;;;;;;;;;6133890;28;20047;-85
2024/01/25 10:08:23;;;;;;;16.35;4.63;;;;;;;;;;6144949;28;20058;-85
2024/01/25 10:11:27;;;;;;;19.80;4.90;;;;;;;;;;6136158;28;20051;-84
2024/01/25 10:14:29;;;;;;;19.73;4.80;;;;;;;;;;6165690;28;20050;-85
2024/01/25 10:17:31;;;;;;;18.27;4.75;;;;;;;;;;6143895;28;20047;-85
2024/01/25 10:20:54;;;;;;;21.60;5.47;;;;;;;;;;6155512;28;20054;-84
2024/01/25 10:23:58;;;;;;;14.70;5.03;;;;;;;;;;6141468;28;20055;-85
2024/01/25 10:27:01;;;;;;;14.93;4.60;;;;;;;;;;6140279;28;20516;-84
2024/01/25 10:30:06;;;;;;;20.33;4.95;;;;;;;;;;6142529;28;20039;-84
2024/01/25 10:33:09;;;;;;;23.45;6.05;;;;;;;;;;6115341;28;20606;-85
2024/01/25 10:36:11;;;;;;;21.85;5.25;;;;;;;;;;6140393;28;20051;-85
2024/01/25 10:39:14;;;;;;;16.77;4.60;;;;;;;;;;6136247;28;20047;-85
2024/01/25 10:42:16;;;;;;;22.13;5.67;;;;;;;;;;6138508;28;20073;-84
2024/01/25 10:45:18;;;;;;;19.60;4.90;;;;;;;;;;6134157;28;20221;-85
2024/01/25 10:48:20;;;;;;;17.15;4.82;;;;;;;;;;6130236;28;20050;-86
2024/01/25 10:51:23;;;;;;;15.55;5.88;;;;;;;;;;6153550;28;20050;-86
2024/01/25 10:54:25;;;;;;;22.25;4.47;;;;;;;;;;6118810;28;20051;-86
2024/01/25 10:57:35;;;;;;;23.27;5.30;;;;;;;;;;6152257;28;20046;-85
2024/01/25 11:00:36;;;;;;;15.57;4.78;;;;;;;;;;6114544;28;20066;-86
2024/01/25 11:03:40;;;;;;;19.00;6.32;;;;;;;;;;6138025;28;20047;-86
2024/01/25 11:06:47;;;;;;;16.13;4.97;;;;;;;;;;6115744;28;20058;-87
2024/01/25 11:09:51;;;;;;;14.15;4.28;;;;;;;;;;6157398;28;20129;-86
2024/01/25 11:12:58;;;;;;;15.98;4.38;;;;;;;;;;6125964;28;20046;-86
2024/01/25 11:16:14;;;;;;;27.23;5.30;;;;;;;;;;6126411;28;20297;-85
2024/01/25 11:19:22;;;;;;;17.38;4.80;;;;;;;;;;6144180;28;20039;-85
2024/01/25 11:22:35;;;;;;;27.65;5.13;;;;;;;;;;6138666;28;20047;-85
2024/01/25 11:25:37;;;;;;;18.92;4.60;;;;;;;;;;6132488;28;20046;-86
2024/01/25 11:28:40;;;;;;;18.77;4.20;;;;;;;;;;6140671;28;20521;-85
2024/01/25 11:31:46;;;;;;;16.13;4.32;;;;;;;;;;6158004;28;20106;-86
2024/01/25 11:34:58;;;;;;;13.35;3.53;;;;;;;;;;6148913;28;20055;-85
2024/01/25 11:38:00;;;;;;;14.43;3.45;;;;;;;;;;6132430;28;20411;-85
2024/01/25 11:41:02;;;;;;;21.08;3.83;;;;;;;;;;6116140;28;20051;-85
2024/01/25 11:44:04;;;;;;;16.65;3.20;;;;;;;;;;6140050;28;20125;-85
2024/01/25 11:47:07;;;;;;;17.92;4.15;;;;;;;;;;6121016;28;20525;-86
2024/01/25 11:50:12;;;;;;;22.90;3.60;;;;;;;;;;6154251;28;20046;-86
2024/01/25 11:53:14;;;;;;;20.00;4.25;;;;;;;;;;6131847;28;20458;-85
2024/01/25 11:56:24;;;;;;;18.08;4.10;;;;;;;;;;6146124;28;20054;-87
2024/01/25 11:59:26;;;;;;;15.10;3.83;;;;;;;;;;6151086;28;20506;-87
2024/01/25 12:02:28;;;;;;;13.90;3.75;;;;;;;;;;6132381;28;20134;-87
2024/01/25 12:05:30;;;;;;;15.07;4.07;;;;;;;;;;6115839;28;20051;-88
2024/01/25 12:08:36;;;;;;;98.57;37.75;;;;;;;;;;6126323;28;20541;-87
2024/01/25 12:11:41;;;;;;;24.45;4.57;;;;;;;;;;6144142;28;20054;-87
2024/01/25 12:14:43;;;;;;;31.42;12.95;;;;;;;;;;6124793;28;20056;-86
2024/01/25 12:17:46;;;;;;;;;;;;;;;;;;6108217;28;20051;-89
2024/01/25 12:20:48;;;;;;;14.07;3.78;;;;;;;;;;6134263;28;19930;-87
2024/01/25 12:23:51;;;;;;;16.30;5.90;;;;;;;;;;6126982;28;20403;-85
2024/01/25 12:26:54;;;;;;;15.15;3.95;;;;;;;;;;6129711;28;20088;-85
2024/01/25 12:29:56;;;;;;;15.93;5.72;;;;;;;;;;6143816;28;20051;-85
2024/01/25 12:32:58;;;;;;;22.95;4.13;;;;;;;;;;6135989;28;20103;-85
2024/01/25 12:36:00;;;;;;;18.15;3.50;;;;;;;;;;6153328;28;20043;-85
2024/01/25 12:39:06;;;;;;;22.33;6.38;;;;;;;;;;6114700;28;20066;-84
2024/01/25 12:42:08;;;;;;;13.65;3.85;;;;;;;;;;6151230;28;20067;-86
2024/01/25 12:45:10;;;;;;;16.67;2.90;;;;;;;;;;6137124;28;20087;-85
2024/01/25 12:48:12;;;;;;;12.02;2.25;;;;;;;;;;6126640;28;20049;-85
2024/01/25 12:51:14;;;;;;;17.17;3.17;;;;;;;;;;6140257;28;20345;-86
2024/01/25 12:54:17;;;;;;;14.70;3.10;;;;;;;;;;6118706;28;20126;-88
2024/01/25 12:57:19;;;;;;;11.80;1.85;;;;;;;;;;6152085;28;20794;-88
2024/01/25 13:00:23;;;;;;;14.88;2.47;;;;;;;;;;6138809;28;20054;-89
2024/01/25 13:03:25;;;;;;;15.80;2.80;;;;;;;;;;6164946;28;20062;-88
2024/01/25 13:06:31;;;;;;;12.45;2.42;;;;;;;;;;6157165;28;20449;-89
2024/01/25 13:09:37;;;;;;;12.90;3.08;;;;;;;;;;6065372;28;20085;-88
2024/01/25 13:12:41;;;;;;;14.05;2.70;;;;;;;;;;6092454;28;20063;-90
2024/01/25 13:15:43;;;;;;;12.43;3.92;;;;;;;;;;6153091;28;20557;-89
2024/01/25 13:18:48;;;;;;;13.35;2.40;;;;;;;;;;6112641;28;20169;-88
2024/01/25 13:21:50;;;;;;;23.42;5.30;;;;;;;;;;6145121;28;20498;-89
2024/01/25 13:24:54;;;;;;;16.55;3.60;;;;;;;;;;6121094;28;20054;-89
2024/01/25 13:27:56;;;;;;;15.30;3.38;;;;;;;;;;6123912;28;20053;-88
2024/01/25 13:30:59;;;;;;;13.48;2.90;;;;;;;;;;6124137;28;20066;-89
2024/01/25 13:34:05;;;;;;;18.50;4.47;;;;;;;;;;6102995;28;20126;-89
2024/01/25 13:37:07;;;;;;;22.08;3.60;;;;;;;;;;6134170;28;20087;-89
2024/01/25 13:40:10;;;;;;;15.65;2.72;;;;;;;;;;6130600;28;20075;-87
2024/01/25 13:43:12;;;;;;;20.07;3.27;;;;;;;;;;6096907;28;20047;-87
2024/01/25 13:46:14;;;;;;;17.17;3.15;;;;;;;;;;6129999;28;20121;-87
2024/01/25 13:49:15;;;;;;;14.77;3.03;;;;;;;;;;6110096;28;20058;-86
2024/01/25 13:52:21;;;;;;;10.65;2.45;;;;;;;;;;6136439;28;20543;-85
2024/01/25 13:55:23;;;;;;;16.92;3.28;;;;;;;;;;6141496;28;20057;-86
2024/01/25 13:58:27;;;;;;;14.77;2.30;;;;;;;;;;6141577;28;20055;-85
2024/01/25 14:01:29;;;;;;;10.65;3.13;;;;;;;;;;6123839;28;20047;-86
2024/01/25 14:04:31;;;;;;;16.67;2.95;;;;;;;;;;6138236;28;20051;-87
2024/01/25 14:07:33;;;;;;;11.13;2.67;;;;;;;;;;6136439;28;20054;-86
2024/01/25 14:10:37;;;;;;;13.57;3.22;;;;;;;;;;6146622;28;20506;-87
2024/01/25 14:13:39;;;;;;;16.67;3.63;;;;;;;;;;6163508;28;20043;-89
2024/01/25 14:16:44;;;;;;;11.65;2.72;;;;;;;;;;6149010;28;20077;-85
2024/01/25 14:19:47;;;;;;;16.48;2.70;;;;;;;;;;6149289;28;20073;-86
2024/01/25 14:22:49;;;;;;;15.17;3.00;;;;;;;;;;6131870;28;20051;-85
2024/01/25 14:25:53;;;;;;;14.10;2.75;;;;;;;;;;6146732;28;20052;-85
2024/01/25 14:28:55;;;;;;;16.33;3.30;;;;;;;;;;6143097;28;20039;-86
2024/01/25 14:31:57;;;;;;;17.08;4.30;;;;;;;;;;6141253;28;20055;-85
2024/01/25 14:35:00;;;;;;;19.75;3.58;;;;;;;;;;6128901;28;20044;-83
2024/01/25 14:38:02;;;;;;;16.10;3.83;;;;;;;;;;6150779;28;20445;-84
2024/01/25 14:41:08;;;;;;;12.50;3.10;;;;;;;;;;6147103;28;20090;-83
2024/01/25 14:44:10;;;;;;;13.90;3.22;;;;;;;;;;6143910;28;20051;-85
2024/01/25 14:47:13;;;;;;;16.33;3.80;;;;;;;;;;6152287;28;20141;-84
2024/01/25 14:50:15;;;;;;;13.48;2.97;;;;;;;;;;6144527;28;20337;-84
2024/01/25 14:53:18;;;;;;;19.10;3.15;;;;;;;;;;6165910;28;20058;-83
2024/01/25 14:56:20;;;;;;;16.25;3.25;;;;;;;;;;6146759;28;20120;-84
2024/01/25 14:59:21;;;;;;;15.88;3.47;;;;;;;;;;6146521;28;20043;-84
2024/01/25 15:02:23;;;;;;;13.43;4.68;;;;;;;;;;6145801;28;20117;-83
2024/01/25 15:05:25;;;;;;;24.15;3.92;;;;;;;;;;6142519;28;20046;-85
2024/01/25 15:08:26;;;;;;;11.27;4.13;;;;;;;;;;6127545;28;20596;-85
2024/01/25 15:11:28;;;;;;;12.20;3.25;;;;;;;;;;6141843;28;20066;-85
2024/01/25 15:14:30;;;;;;;15.32;3.75;;;;;;;;;;6125983;28;20059;-85
2024/01/25 15:17:32;;;;;;;16.67;4.07;;;;;;;;;;6125924;28;20048;-85
2024/01/25 15:20:35;;;;;;;16.55;3.58;;;;;;;;;;6131235;28;20462;-84
2024/01/25 15:23:37;;;;;;;16.98;3.55;;;;;;;;;;6139341;28;20193;-85
2024/01/25 15:26:40;;;;;;;11.55;3.28;;;;;;;;;;6136086;28;20051;-84
2024/01/25 15:29:42;;;;;;;13.60;3.85;;;;;;;;;;6141014;28;20047;-85
2024/01/25 15:32:46;;;;;;;19.38;4.60;;;;;;;;;;6135649;28;20057;-85
2024/01/25 15:35:48;;;;;;;18.20;5.32;;;;;;;;;;6152922;28;20179;-85
2024/01/25 15:38:50;;;;;;;18.92;5.10;;;;;;;;;;6134032;28;20043;-85
2024/01/25 15:41:53;;;;;;;15.48;4.13;;;;;;;;;;6138398;28;20051;-85
2024/01/25 15:44:55;;;;;;;14.70;3.65;;;;;;;;;;6125571;28;20050;-85
2024/01/25 15:47:56;;;;;;;16.98;4.80;;;;;;;;;;6124215;28;20110;-85
2024/01/25 15:50:58;;;;;;;24.85;9.18;;;;;;;;;;6139900;28;20543;-88
2024/01/25 15:54:00;;;;;;;19.10;5.28;;;;;;;;;;6159634;28;20122;-85
2024/01/25 15:57:02;;;;;;;18.70;4.75;;;;;;;;;;6152060;28;20048;-87
2024/01/25 16:00:04;;;;;;;14.15;3.90;;;;;;;;;;6146153;28;20055;-88
2024/01/25 16:03:10;;;;;;;15.35;3.58;;;;;;;;;;6158957;28;20042;-86
2024/01/25 16:06:12;;;;;;;19.92;4.00;;;;;;;;;;6146329;28;20051;-86
2024/01/25 16:09:14;;;;;;;20.23;3.90;;;;;;;;;;6139506;28;20070;-87
2024/01/25 16:12:18;;;;;;;14.55;3.20;;;;;;;;;;6147281;28;20055;-87
2024/01/25 16:15:20;;;;;;;15.52;3.28;;;;;;;;;;6149031;28;20069;-86
2024/01/25 16:18:25;;;;;;;17.63;7.20;;;;;;;;;;6121133;28;20499;-86
2024/01/25 16:21:27;;;;;;;20.60;7.97;;;;;;;;;;6137369;28;20050;-87
2024/01/25 16:24:29;;;;;;;19.75;6.85;;;;;;;;;;6139874;28;20047;-85
2024/01/25 16:27:31;;;;;;;20.27;9.15;;;;;;;;;;6141612;28;20043;-85
2024/01/25 16:30:34;;;;;;;19.33;5.63;;;;;;;;;;6138521;28;20047;-85
2024/01/25 16:33:35;;;;;;;23.13;6.15;;;;;;;;;;6136446;28;20074;-86
2024/01/25 16:36:38;;;;;;;35.05;12.48;;;;;;;;;;6143421;28;20054;-87
2024/01/25 16:39:40;;;;;;;24.08;9.38;;;;;;;;;;6138698;28;20052;-85
2024/01/25 16:42:42;;;;;;;26.75;7.88;;;;;;;;;;6146159;28;20043;-85
2024/01/25 16:45:48;;;;;;;28.02;9.18;;;;;;;;;;6134037;28;20034;-87
2024/01/25 16:48:50;;;;;;;18.85;8.88;;;;;;;;;;6140285;28;20051;-86
2024/01/25 16:51:52;;;;;;;22.73;8.52;;;;;;;;;;6141978;28;20133;-85
2024/01/25 16:54:54;;;;;;;25.88;9.60;;;;;;;;;;6158462;28;20098;-84
2024/01/25 16:57:56;;;;;;;17.65;7.75;;;;;;;;;;6128857;28;20054;-86
2024/01/25 17:00:59;;;;;;;24.92;9.15;;;;;;;;;;6143413;28;20053;-84
2024/01/25 17:04:02;;;;;;;22.27;6.20;;;;;;;;;;6137175;28;20178;-85
2024/01/25 17:07:04;;;;;;;22.98;7.60;;;;;;;;;;6138443;28;20391;-84
2024/01/25 17:10:09;;;;;;;32.85;13.23;;;;;;;;;;6138422;28;20043;-84
2024/01/25 17:13:11;;;;;;;26.83;8.85;;;;;;;;;;6118426;28;20050;-83
2024/01/25 17:16:13;;;;;;;53.65;18.15;;;;;;;;;;6149405;28;20376;-85
2024/01/25 17:19:14;;;;;;;21.88;8.98;;;;;;;;;;6136120;28;20050;-84
2024/01/25 17:22:16;;;;;;;23.40;9.25;;;;;;;;;;6150426;28;20051;-84
2024/01/25 17:25:18;;;;;;;27.35;10.68;;;;;;;;;;6147665;28;20067;-84
2024/01/25 17:28:20;;;;;;;27.90;10.48;;;;;;;;;;6132716;28;20074;-83
2024/01/25 17:31:22;;;;;;;28.05;9.50;;;;;;;;;;6137111;28;20136;-85
2024/01/25 17:34:24;;;;;;;24.73;8.27;;;;;;;;;;6138220;28;20046;-86
2024/01/25 17:37:26;;;;;;;20.42;7.18;;;;;;;;;;6122360;28;20046;-84
2024/01/25 17:40:28;;;;;;;23.38;9.65;;;;;;;;;;6151847;28;20055;-84
2024/01/25 17:43:29;;;;;;;23.83;7.45;;;;;;;;;;6155316;28;20051;-83
2024/01/25 17:46:31;;;;;;;19.90;7.15;;;;;;;;;;6134443;28;20542;-84
2024/01/25 17:49:33;;;;;;;29.77;9.90;;;;;;;;;;6135988;28;20047;-84
2024/01/25 17:52:36;;;;;;;21.58;8.52;;;;;;;;;;6146597;28;20134;-85
2024/01/25 17:55:38;;;;;;;31.55;9.18;;;;;;;;;;6144100;28;20039;-84
2024/01/25 17:58:39;;;;;;;21.77;7.15;;;;;;;;;;6147127;28;20047;-84